Home > Products > Valid Products > TAF

000
FTUS42 KMHX 302300
TAFEWN
TAF
KEWN 302326Z 3100/3124 18003KT P6SM FEW035
     FM310700 19002KT 3SM BR SCT005
     FM311300 18007KT P6SM SCT040=



000
FTUS42 KMHX 301700
TAFEWN
TAF
KEWN 301720Z 3018/3118 13005KT P6SM SCT050
     FM310100 16004KT P6SM SKC
     FM310800 00000KT 4SM BR SCT250
     FM311300 20005KT P6SM FEW250=



000
FTUS42 KMHX 301100
TAFEWN
TAF
KEWN 301120Z 3012/3112 00000KT P6SM BKN070
     FM301300 13007KT P6SM SCT040
     FM310100 16004KT P6SM SKC=



000
FTUS42 KMHX 300900 AAA
TAFEWN
TAF AMD
KEWN 300905Z 3009/3106 04003KT P6SM SKC
     FM301000 00000KT 4SM BR SKC
     FM301200 15007KT P6SM SCT040
     FM310100 16004KT P6SM SKC=



000
FTUS42 KMHX 300500 RRA
TAFEWN
TAF
KEWN 300541Z 3006/3106 05002KT P6SM SKC
     FM300800 00000KT 4SM BR BKN005
     FM301230 15007KT P6SM SCT040
     FM310100 16004KT P6SM SKC=



000
FTUS42 KMHX 292300
TAFEWN
TAF
KEWN 292331Z 3000/3024 07003KT P6SM SCT030
      TEMPO 3000/3001 BKN020
     FM300800 VRB02KT 3SM BR BKN005
     FM301230 14006KT P6SM SCT040=



000
FTUS42 KMHX 291700
TAFEWN
TAF
KEWN 291740Z 2918/3018 10004KT P6SM SCT020
     FM300800 VRB02KT 5SM BR SCT005
     FM301300 13004KT P6SM SCT040=



000
FTUS42 KMHX 291100
TAFEWN
TAF
KEWN 291140Z 2912/3012 21004KT P6SM BKN060
     FM291300 06005KT P6SM SCT060
     FM291800 10007KT P6SM BKN040
     FM300100 12004KT P6SM SCT040
     FM300800 VRB02KT 5SM BR SCT005=



000
FTUS42 KMHX 290500
TAFEWN
TAF
KEWN 290540Z 2906/3006 22005KT P6SM BKN050
     FM291300 06005KT P6SM SCT040
     FM291800 10007KT P6SM BKN040
     FM300100 12004KT P6SM SCT040=



000
FTUS42 KMHX 282300
TAFEWN
TAF
KEWN 282320Z 2900/2924 17006KT P6SM SCT050
     FM290800 VRB02KT P6SM SCT020 BKN050
     FM291300 05004KT P6SM SCT035
     FM291800 09007KT P6SM BKN040=



000
FTUS42 KMHX 281700
TAFEWN
TAF
KEWN 281729Z 2818/2918 VRB06KT P6SM SKC
     FM290000 20004KT P6SM SCT050
     FM290800 VRB02KT P6SM SCT020 BKN050
     FM291300 05004KT P6SM SCT035=



000
FTUS42 KMHX 281100
TAFEWN
TAF
KEWN 281121Z 2812/2912 23004KT P6SM SKC
     FM290000 19004KT P6SM SCT050
     FM290600 16004KT P6SM OVC035=



000
FTUS42 KMHX 280500
TAFEWN
TAF
KEWN 280526Z 2806/2906 20004KT P6SM SKC
     FM290000 19004KT P6SM SCT050=



    US Dept of Commerce
    National Oceanic and Atmospheric Administration
    National Weather Service
    1325 East West Highway
    Silver Spring, MD 20910
    Page Author: NWS Internet Services Team
Disclaimer
Information Quality
Credits
Glossary
Privacy Policy
Freedom of Information Act (FOIA)
About Us
Career Opportunities